sensor_id;sensor_type;location;lat;lon;timestamp;temperature;humidity
77519;DHT22;66629;47.346;19.038;2023-04-23T00:00:47;9.30;73.98
77519;DHT22;66629;47.346;19.038;2023-04-23T00:03:13;9.24;74.96
77519;DHT22;66629;47.346;19.038;2023-04-23T00:05:39;9.16;75.01
77519;DHT22;66629;47.346;19.038;2023-04-23T00:08:06;9.19;75.36
77519;DHT22;66629;47.346;19.038;2023-04-23T00:10:32;9.17;74.50
77519;DHT22;66629;47.346;19.038;2023-04-23T00:13:00;9.07;76.33
77519;DHT22;66629;47.346;19.038;2023-04-23T00:15:26;9.06;75.80
77519;DHT22;66629;47.346;19.038;2023-04-23T00:17:52;8.99;75.70
77519;DHT22;66629;47.346;19.038;2023-04-23T00:20:18;9.00;74.92
77519;DHT22;66629;47.346;19.038;2023-04-23T00:22:43;8.99;75.73
77519;DHT22;66629;47.346;19.038;2023-04-23T00:25:09;8.96;76.33
77519;DHT22;66629;47.346;19.038;2023-04-23T00:27:35;8.92;76.25
77519;DHT22;66629;47.346;19.038;2023-04-23T00:30:02;8.88;76.37
77519;DHT22;66629;47.346;19.038;2023-04-23T00:32:28;8.88;74.77
77519;DHT22;66629;47.346;19.038;2023-04-23T00:34:53;8.79;76.49
77519;DHT22;66629;47.346;19.038;2023-04-23T00:37:19;8.79;76.69
77519;DHT22;66629;47.346;19.038;2023-04-23T00:39:45;8.73;75.36
77519;DHT22;66629;47.346;19.038;2023-04-23T00:42:11;8.67;78.28
77519;DHT22;66629;47.346;19.038;2023-04-23T00:44:39;8.61;77.58
77519;DHT22;66629;47.346;19.038;2023-04-23T00:47:09;8.63;76.87
77519;DHT22;66629;47.346;19.038;2023-04-23T00:49:35;8.61;77.36
77519;DHT22;66629;47.346;19.038;2023-04-23T00:52:01;8.53;78.12
77519;DHT22;66629;47.346;19.038;2023-04-23T00:54:27;8.47;77.49
77519;DHT22;66629;47.346;19.038;2023-04-23T00:56:54;8.46;77.49
77519;DHT22;66629;47.346;19.038;2023-04-23T00:59:20;8.43;77.01
77519;DHT22;66629;47.346;19.038;2023-04-23T01:01:46;8.36;77.87
77519;DHT22;66629;47.346;19.038;2023-04-23T01:04:14;8.23;78.16
77519;DHT22;66629;47.346;19.038;2023-04-23T01:06:40;8.25;78.41
77519;DHT22;66629;47.346;19.038;2023-04-23T01:09:07;8.17;79.41
77519;DHT22;66629;47.346;19.038;2023-04-23T01:11:37;8.14;77.59
77519;DHT22;66629;47.346;19.038;2023-04-23T01:14:03;8.07;77.88
77519;DHT22;66629;47.346;19.038;2023-04-23T01:16:28;8.07;79.37
77519;DHT22;66629;47.346;19.038;2023-04-23T01:18:55;8.01;79.14
77519;DHT22;66629;47.346;19.038;2023-04-23T01:21:21;7.89;79.53
77519;DHT22;66629;47.346;19.038;2023-04-23T01:23:47;7.81;80.16
77519;DHT22;66629;47.346;19.038;2023-04-23T01:26:12;7.79;79.70
77519;DHT22;66629;47.346;19.038;2023-04-23T01:28:40;7.81;79.40
77519;DHT22;66629;47.346;19.038;2023-04-23T01:31:05;7.84;80.00
77519;DHT22;66629;47.346;19.038;2023-04-23T01:33:32;7.87;80.34
77519;DHT22;66629;47.346;19.038;2023-04-23T01:35:58;7.89;79.95
77519;DHT22;66629;47.346;19.038;2023-04-23T01:38:27;7.92;80.67
77519;DHT22;66629;47.346;19.038;2023-04-23T01:40:55;7.92;80.22
77519;DHT22;66629;47.346;19.038;2023-04-23T01:43:21;7.91;80.54
77519;DHT22;66629;47.346;19.038;2023-04-23T01:45:46;7.87;80.95
77519;DHT22;66629;47.346;19.038;2023-04-23T01:48:12;7.84;80.55
77519;DHT22;66629;47.346;19.038;2023-04-23T01:50:38;7.78;80.69
77519;DHT22;66629;47.346;19.038;2023-04-23T01:53:04;7.75;80.86
77519;DHT22;66629;47.346;19.038;2023-04-23T01:55:30;7.71;80.73
77519;DHT22;66629;47.346;19.038;2023-04-23T01:57:56;7.70;80.61
77519;DHT22;66629;47.346;19.038;2023-04-23T02:00:21;7.70;80.19
77519;DHT22;66629;47.346;19.038;2023-04-23T02:02:47;7.70;80.39
77519;DHT22;66629;47.346;19.038;2023-04-23T02:05:15;7.64;81.21
77519;DHT22;66629;47.346;19.038;2023-04-23T02:07:43;7.63;81.26
77519;DHT22;66629;47.346;19.038;2023-04-23T02:10:09;7.60;81.53
77519;DHT22;66629;47.346;19.038;2023-04-23T02:12:36;7.60;80.46
77519;DHT22;66629;47.346;19.038;2023-04-23T02:15:02;7.63;80.76
77519;DHT22;66629;47.346;19.038;2023-04-23T02:17:27;7.59;81.23
77519;DHT22;66629;47.346;19.038;2023-04-23T02:19:53;7.46;81.50
77519;DHT22;66629;47.346;19.038;2023-04-23T02:22:20;7.45;81.28
77519;DHT22;66629;47.346;19.038;2023-04-23T02:24:46;7.29;81.52
77519;DHT22;66629;47.346;19.038;2023-04-23T02:27:12;7.19;81.23
77519;DHT22;66629;47.346;19.038;2023-04-23T02:29:38;7.20;81.97
77519;DHT22;66629;47.346;19.038;2023-04-23T02:32:03;7.23;81.74
77519;DHT22;66629;47.346;19.038;2023-04-23T02:34:29;7.18;81.54
77519;DHT22;66629;47.346;19.038;2023-04-23T02:36:54;7.19;82.05
77519;DHT22;66629;47.346;19.038;2023-04-23T02:39:20;7.22;82.26
77519;DHT22;66629;47.346;19.038;2023-04-23T02:41:45;7.28;81.04
77519;DHT22;66629;47.346;19.038;2023-04-23T02:44:10;7.32;81.26
77519;DHT22;66629;47.346;19.038;2023-04-23T02:46:37;7.26;82.19
77519;DHT22;66629;47.346;19.038;2023-04-23T02:49:02;7.22;80.84
77519;DHT22;66629;47.346;19.038;2023-04-23T02:51:28;7.20;81.83
77519;DHT22;66629;47.346;19.038;2023-04-23T02:53:55;7.20;81.33
77519;DHT22;66629;47.346;19.038;2023-04-23T02:56:21;7.22;83.40
77519;DHT22;66629;47.346;19.038;2023-04-23T02:58:46;7.20;81.10
77519;DHT22;66629;47.346;19.038;2023-04-23T03:01:12;7.18;82.43
77519;DHT22;66629;47.346;19.038;2023-04-23T03:03:38;7.12;81.99
77519;DHT22;66629;47.346;19.038;2023-04-23T03:06:03;7.16;82.29
77519;DHT22;66629;47.346;19.038;2023-04-23T03:08:31;7.14;82.07
77519;DHT22;66629;47.346;19.038;2023-04-23T03:10:57;7.05;81.65
77519;DHT22;66629;47.346;19.038;2023-04-23T03:13:23;7.08;83.18
77519;DHT22;66629;47.346;19.038;2023-04-23T03:15:49;7.07;82.83
77519;DHT22;66629;47.346;19.038;2023-04-23T03:18:15;7.07;82.36
77519;DHT22;66629;47.346;19.038;2023-04-23T03:20:40;7.12;82.72
77519;DHT22;66629;47.346;19.038;2023-04-23T03:23:06;7.12;82.77
77519;DHT22;66629;47.346;19.038;2023-04-23T03:25:32;7.32;82.24
77519;DHT22;66629;47.346;19.038;2023-04-23T03:27:58;7.35;81.97
77519;DHT22;66629;47.346;19.038;2023-04-23T03:30:23;7.28;82.21
77519;DHT22;66629;47.346;19.038;2023-04-23T03:32:49;7.43;82.67
77519;DHT22;66629;47.346;19.038;2023-04-23T03:35:15;7.46;82.65
77519;DHT22;66629;47.346;19.038;2023-04-23T03:37:41;7.57;82.33
77519;DHT22;66629;47.346;19.038;2023-04-23T03:40:07;7.52;82.06
77519;DHT22;66629;47.346;19.038;2023-04-23T03:42:33;7.45;82.26
77519;DHT22;66629;47.346;19.038;2023-04-23T03:44:59;7.32;82.03
77519;DHT22;66629;47.346;19.038;2023-04-23T03:47:25;7.23;83.05
77519;DHT22;66629;47.346;19.038;2023-04-23T03:49:51;7.19;82.77
77519;DHT22;66629;47.346;19.038;2023-04-23T03:52:17;7.14;83.64
77519;DHT22;66629;47.346;19.038;2023-04-23T03:54:42;7.15;83.64
77519;DHT22;66629;47.346;19.038;2023-04-23T03:57:08;7.25;83.36
77519;DHT22;66629;47.346;19.038;2023-04-23T03:59:33;7.36;82.58
77519;DHT22;66629;47.346;19.038;2023-04-23T04:02:00;7.43;82.67
77519;DHT22;66629;47.346;19.038;2023-04-23T04:04:28;7.39;83.15
77519;DHT22;66629;47.346;19.038;2023-04-23T04:06:53;7.39;83.47
77519;DHT22;66629;47.346;19.038;2023-04-23T04:09:19;7.33;83.23
77519;DHT22;66629;47.346;19.038;2023-04-23T04:11:44;7.36;82.39
77519;DHT22;66629;47.346;19.038;2023-04-23T04:14:10;7.43;82.29
77519;DHT22;66629;47.346;19.038;2023-04-23T04:16:35;7.60;81.91
77519;DHT22;66629;47.346;19.038;2023-04-23T04:19:02;7.88;80.69
77519;DHT22;66629;47.346;19.038;2023-04-23T04:21:27;8.09;80.11
77519;DHT22;66629;47.346;19.038;2023-04-23T04:23:54;8.26;78.72
77519;DHT22;66629;47.346;19.038;2023-04-23T04:26:20;8.46;78.04
77519;DHT22;66629;47.346;19.038;2023-04-23T04:28:45;8.61;77.42
77519;DHT22;66629;47.346;19.038;2023-04-23T04:31:12;8.89;77.39
77519;DHT22;66629;47.346;19.038;2023-04-23T04:33:38;9.17;77.56
77519;DHT22;66629;47.346;19.038;2023-04-23T04:36:04;9.38;77.01
77519;DHT22;66629;47.346;19.038;2023-04-23T04:38:29;9.69;76.52
77519;DHT22;66629;47.346;19.038;2023-04-23T04:40:55;9.96;75.66
77519;DHT22;66629;47.346;19.038;2023-04-23T04:43:24;10.25;74.24
77519;DHT22;66629;47.346;19.038;2023-04-23T04:45:50;10.53;73.22
77519;DHT22;66629;47.346;19.038;2023-04-23T04:48:16;10.79;70.71
77519;DHT22;66629;47.346;19.038;2023-04-23T04:50:41;11.08;69.50
77519;DHT22;66629;47.346;19.038;2023-04-23T04:53:07;11.24;66.94
77519;DHT22;66629;47.346;19.038;2023-04-23T04:55:32;11.38;66.20
77519;DHT22;66629;47.346;19.038;2023-04-23T04:57:57;11.46;65.26
77519;DHT22;66629;47.346;19.038;2023-04-23T05:00:25;11.50;65.44
77519;DHT22;66629;47.346;19.038;2023-04-23T05:02:54;11.77;65.65
77519;DHT22;66629;47.346;19.038;2023-04-23T05:05:21;11.70;64.03
77519;DHT22;66629;47.346;19.038;2023-04-23T05:07:47;12.16;64.84
77519;DHT22;66629;47.346;19.038;2023-04-23T05:10:13;12.16;63.13
77519;DHT22;66629;47.346;19.038;2023-04-23T05:12:39;12.18;62.73
77519;DHT22;66629;47.346;19.038;2023-04-23T05:15:09;12.63;62.68
77519;DHT22;66629;47.346;19.038;2023-04-23T05:17:35;12.91;61.84
77519;DHT22;66629;47.346;19.038;2023-04-23T05:20:01;12.95;60.18
77519;DHT22;66629;47.346;19.038;2023-04-23T05:22:27;13.08;60.38
77519;DHT22;66629;47.346;19.038;2023-04-23T05:24:53;13.42;60.83
77519;DHT22;66629;47.346;19.038;2023-04-23T05:27:18;13.78;59.81
77519;DHT22;66629;47.346;19.038;2023-04-23T05:29:43;14.10;58.75
77519;DHT22;66629;47.346;19.038;2023-04-23T05:32:09;14.27;57.19
77519;DHT22;66629;47.346;19.038;2023-04-23T05:34:35;14.27;56.67
77519;DHT22;66629;47.346;19.038;2023-04-23T05:37:01;14.68;56.73
77519;DHT22;66629;47.346;19.038;2023-04-23T05:39:26;14.82;55.50
77519;DHT22;66629;47.346;19.038;2023-04-23T05:41:52;14.54;56.46
77519;DHT22;66629;47.346;19.038;2023-04-23T05:44:18;14.01;58.44
77519;DHT22;66629;47.346;19.038;2023-04-23T05:46:43;14.69;57.24
77519;DHT22;66629;47.346;19.038;2023-04-23T05:49:08;15.26;56.00
77519;DHT22;66629;47.346;19.038;2023-04-23T05:51:34;15.62;54.32
77519;DHT22;66629;47.346;19.038;2023-04-23T05:54:00;15.30;54.16
77519;DHT22;66629;47.346;19.038;2023-04-23T05:56:25;15.13;52.90
77519;DHT22;66629;47.346;19.038;2023-04-23T05:58:50;15.65;53.15
77519;DHT22;66629;47.346;19.038;2023-04-23T06:01:16;15.39;53.32
77519;DHT22;66629;47.346;19.038;2023-04-23T06:03:42;15.62;54.61
77519;DHT22;66629;47.346;19.038;2023-04-23T06:06:10;15.49;53.80
77519;DHT22;66629;47.346;19.038;2023-04-23T06:08:36;14.99;55.16
77519;DHT22;66629;47.346;19.038;2023-04-23T06:11:02;15.87;54.41
77519;DHT22;66629;47.346;19.038;2023-04-23T06:13:27;16.51;53.07
77519;DHT22;66629;47.346;19.038;2023-04-23T06:15:55;16.48;51.94
77519;DHT22;66629;47.346;19.038;2023-04-23T06:18:20;16.53;52.31
77519;DHT22;66629;47.346;19.038;2023-04-23T06:20:46;16.79;52.24
77519;DHT22;66629;47.346;19.038;2023-04-23T06:23:12;16.63;52.21
77519;DHT22;66629;47.346;19.038;2023-04-23T06:25:38;16.98;51.87
77519;DHT22;66629;47.346;19.038;2023-04-23T06:28:03;17.36;49.76
77519;DHT22;66629;47.346;19.038;2023-04-23T06:30:28;17.16;49.11
77519;DHT22;66629;47.346;19.038;2023-04-23T06:32:54;17.50;48.62
77519;DHT22;66629;47.346;19.038;2023-04-23T06:35:19;17.51;47.97
77519;DHT22;66629;47.346;19.038;2023-04-23T06:37:45;17.26;49.37
77519;DHT22;66629;47.346;19.038;2023-04-23T06:40:10;17.77;49.50
77519;DHT22;66629;47.346;19.038;2023-04-23T06:42:36;17.60;49.45
77519;DHT22;66629;47.346;19.038;2023-04-23T06:45:01;17.73;48.61
77519;DHT22;66629;47.346;19.038;2023-04-23T06:47:30;17.89;49.40
77519;DHT22;66629;47.346;19.038;2023-04-23T06:49:57;18.12;48.13
77519;DHT22;66629;47.346;19.038;2023-04-23T06:52:24;18.46;47.86
77519;DHT22;66629;47.346;19.038;2023-04-23T06:54:50;18.57;46.22
77519;DHT22;66629;47.346;19.038;2023-04-23T06:57:16;18.88;45.66
77519;DHT22;66629;47.346;19.038;2023-04-23T06:59:41;18.98;46.01
77519;DHT22;66629;47.346;19.038;2023-04-23T07:02:07;19.38;45.04
77519;DHT22;66629;47.346;19.038;2023-04-23T07:04:32;18.94;44.28
77519;DHT22;66629;47.346;19.038;2023-04-23T07:06:57;18.63;44.64
77519;DHT22;66629;47.346;19.038;2023-04-23T07:09:25;19.66;44.12
77519;DHT22;66629;47.346;19.038;2023-04-23T07:11:50;20.33;43.79
77519;DHT22;66629;47.346;19.038;2023-04-23T07:14:16;19.96;41.79
77519;DHT22;66629;47.346;19.038;2023-04-23T07:16:41;20.53;42.35
77519;DHT22;66629;47.346;19.038;2023-04-23T07:19:07;20.21;42.47
77519;DHT22;66629;47.346;19.038;2023-04-23T07:21:32;20.20;43.28
77519;DHT22;66629;47.346;19.038;2023-04-23T07:23:57;19.40;43.67
77519;DHT22;66629;47.346;19.038;2023-04-23T07:26:24;18.99;44.86
77519;DHT22;66629;47.346;19.038;2023-04-23T07:28:51;19.58;43.56
77519;DHT22;66629;47.346;19.038;2023-04-23T07:31:17;20.69;43.27
77519;DHT22;66629;47.346;19.038;2023-04-23T07:33:43;19.96;42.28
77519;DHT22;66629;47.346;19.038;2023-04-23T07:36:09;20.89;41.15
77519;DHT22;66629;47.346;19.038;2023-04-23T07:38:34;21.10;39.72
77519;DHT22;66629;47.346;19.038;2023-04-23T07:41:00;20.59;39.49
77519;DHT22;66629;47.346;19.038;2023-04-23T07:43:26;20.49;39.84
77519;DHT22;66629;47.346;19.038;2023-04-23T07:45:51;21.06;39.22
77519;DHT22;66629;47.346;19.038;2023-04-23T07:48:17;21.43;39.88
77519;DHT22;66629;47.346;19.038;2023-04-23T07:50:42;21.45;39.66
77519;DHT22;66629;47.346;19.038;2023-04-23T07:53:08;22.12;38.92
77519;DHT22;66629;47.346;19.038;2023-04-23T07:55:33;22.42;37.51
77519;DHT22;66629;47.346;19.038;2023-04-23T07:57:58;22.57;37.69
77519;DHT22;66629;47.346;19.038;2023-04-23T08:00:24;21.93;37.44
77519;DHT22;66629;47.346;19.038;2023-04-23T08:02:50;22.01;38.44
77519;DHT22;66629;47.346;19.038;2023-04-23T08:05:17;22.26;39.16
77519;DHT22;66629;47.346;19.038;2023-04-23T08:07:42;22.34;37.02
77519;DHT22;66629;47.346;19.038;2023-04-23T08:10:08;22.57;37.90
77519;DHT22;66629;47.346;19.038;2023-04-23T08:12:33;22.15;38.87
77519;DHT22;66629;47.346;19.038;2023-04-23T08:15:00;22.43;37.22
77519;DHT22;66629;47.346;19.038;2023-04-23T08:17:25;22.52;37.46
77519;DHT22;66629;47.346;19.038;2023-04-23T08:19:51;22.68;37.30
77519;DHT22;66629;47.346;19.038;2023-04-23T08:22:16;22.71;37.06
77519;DHT22;66629;47.346;19.038;2023-04-23T08:24:43;21.91;36.79
77519;DHT22;66629;47.346;19.038;2023-04-23T08:27:10;22.60;36.51
77519;DHT22;66629;47.346;19.038;2023-04-23T08:29:36;23.11;35.52
77519;DHT22;66629;47.346;19.038;2023-04-23T08:32:01;22.78;36.29
77519;DHT22;66629;47.346;19.038;2023-04-23T08:34:26;23.41;35.34
77519;DHT22;66629;47.346;19.038;2023-04-23T08:36:52;22.67;36.07
77519;DHT22;66629;47.346;19.038;2023-04-23T08:39:18;22.83;36.96
77519;DHT22;66629;47.346;19.038;2023-04-23T08:41:44;23.12;37.95
77519;DHT22;66629;47.346;19.038;2023-04-23T08:44:18;23.09;35.55
77519;DHT22;66629;47.346;19.038;2023-04-23T08:46:46;23.32;35.47
77519;DHT22;66629;47.346;19.038;2023-04-23T08:49:17;24.05;35.69
77519;DHT22;66629;47.346;19.038;2023-04-23T08:51:48;23.26;34.26
77519;DHT22;66629;47.346;19.038;2023-04-23T08:54:18;22.90;35.49
77519;DHT22;66629;47.346;19.038;2023-04-23T08:56:45;22.61;36.55
77519;DHT22;66629;47.346;19.038;2023-04-23T08:59:11;22.43;36.68
77519;DHT22;66629;47.346;19.038;2023-04-23T09:01:37;23.20;36.65
77519;DHT22;66629;47.346;19.038;2023-04-23T09:04:03;22.66;35.50
77519;DHT22;66629;47.346;19.038;2023-04-23T09:06:29;22.78;35.36
77519;DHT22;66629;47.346;19.038;2023-04-23T09:08:57;22.73;36.43
77519;DHT22;66629;47.346;19.038;2023-04-23T09:11:26;22.41;37.21
77519;DHT22;66629;47.346;19.038;2023-04-23T09:13:52;22.70;36.84
77519;DHT22;66629;47.346;19.038;2023-04-23T09:16:17;23.05;37.24
77519;DHT22;66629;47.346;19.038;2023-04-23T09:18:43;23.36;34.32
77519;DHT22;66629;47.346;19.038;2023-04-23T09:21:09;23.54;34.54
77519;DHT22;66629;47.346;19.038;2023-04-23T09:23:37;23.36;34.99
77519;DHT22;66629;47.346;19.038;2023-04-23T09:26:06;24.06;34.40
77519;DHT22;66629;47.346;19.038;2023-04-23T09:28:35;24.59;34.80
77519;DHT22;66629;47.346;19.038;2023-04-23T09:31:03;24.43;32.91
77519;DHT22;66629;47.346;19.038;2023-04-23T09:33:30;24.36;33.55
77519;DHT22;66629;47.346;19.038;2023-04-23T09:35:57;24.56;33.76
77519;DHT22;66629;47.346;19.038;2023-04-23T09:38:22;25.12;33.18
77519;DHT22;66629;47.346;19.038;2023-04-23T09:40:49;24.54;31.80
77519;DHT22;66629;47.346;19.038;2023-04-23T09:43:14;24.27;31.13
77519;DHT22;66629;47.346;19.038;2023-04-23T09:45:47;24.89;34.19
77519;DHT22;66629;47.346;19.038;2023-04-23T09:48:13;24.64;33.58
77519;DHT22;66629;47.346;19.038;2023-04-23T09:50:39;25.09;32.22
77519;DHT22;66629;47.346;19.038;2023-04-23T09:53:06;24.88;31.48
77519;DHT22;66629;47.346;19.038;2023-04-23T09:55:34;25.06;31.42
77519;DHT22;66629;47.346;19.038;2023-04-23T09:58:05;24.25;30.01
77519;DHT22;66629;47.346;19.038;2023-04-23T10:00:35;24.72;30.11
77519;DHT22;66629;47.346;19.038;2023-04-23T10:03:01;24.81;31.54
77519;DHT22;66629;47.346;19.038;2023-04-23T10:05:27;24.75;30.27
77519;DHT22;66629;47.346;19.038;2023-04-23T10:07:54;25.02;30.24
77519;DHT22;66629;47.346;19.038;2023-04-23T10:10:22;24.81;31.33
77519;DHT22;66629;47.346;19.038;2023-04-23T10:12:47;24.67;28.32
77519;DHT22;66629;47.346;19.038;2023-04-23T10:15:15;24.71;26.78
77519;DHT22;66629;47.346;19.038;2023-04-23T10:17:41;24.72;28.14
77519;DHT22;66629;47.346;19.038;2023-04-23T10:20:08;24.37;29.29
77519;DHT22;66629;47.346;19.038;2023-04-23T10:22:34;24.41;29.11
77519;DHT22;66629;47.346;19.038;2023-04-23T10:25:08;24.57;27.40
77519;DHT22;66629;47.346;19.038;2023-04-23T10:27:37;24.41;27.85
77519;DHT22;66629;47.346;19.038;2023-04-23T10:30:05;24.26;27.13
77519;DHT22;66629;47.346;19.038;2023-04-23T10:32:32;24.29;27.09
77519;DHT22;66629;47.346;19.038;2023-04-23T10:34:58;24.59;26.89
77519;DHT22;66629;47.346;19.038;2023-04-23T10:37:24;25.02;29.32
77519;DHT22;66629;47.346;19.038;2023-04-23T10:39:53;24.98;26.30
77519;DHT22;66629;47.346;19.038;2023-04-23T10:42:20;24.67;25.84
77519;DHT22;66629;47.346;19.038;2023-04-23T10:44:46;24.61;28.22
77519;DHT22;66629;47.346;19.038;2023-04-23T10:47:14;25.02;27.54
77519;DHT22;66629;47.346;19.038;2023-04-23T10:49:41;24.32;24.16
77519;DHT22;66629;47.346;19.038;2023-04-23T10:52:10;24.08;25.52
77519;DHT22;66629;47.346;19.038;2023-04-23T10:54:40;24.57;26.42
77519;DHT22;66629;47.346;19.038;2023-04-23T10:57:07;24.56;25.00
77519;DHT22;66629;47.346;19.038;2023-04-23T10:59:34;24.67;28.39
77519;DHT22;66629;47.346;19.038;2023-04-23T11:02:10;24.67;27.87
77519;DHT22;66629;47.346;19.038;2023-04-23T11:04:43;24.79;27.99
77519;DHT22;66629;47.346;19.038;2023-04-23T11:07:10;25.08;29.72
77519;DHT22;66629;47.346;19.038;2023-04-23T11:12:12;25.20;27.76
77519;DHT22;66629;47.346;19.038;2023-04-23T11:14:47;24.71;27.52
77519;DHT22;66629;47.346;19.038;2023-04-23T11:17:15;25.30;27.01
77519;DHT22;66629;47.346;19.038;2023-04-23T11:20:03;25.71;27.87
77519;DHT22;66629;47.346;19.038;2023-04-23T11:22:33;25.47;27.60
77519;DHT22;66629;47.346;19.038;2023-04-23T11:25:00;25.43;29.19
77519;DHT22;66629;47.346;19.038;2023-04-23T11:27:27;25.06;29.00
77519;DHT22;66629;47.346;19.038;2023-04-23T11:29:54;24.36;29.80
77519;DHT22;66629;47.346;19.038;2023-04-23T11:32:20;24.41;30.07
77519;DHT22;66629;47.346;19.038;2023-04-23T11:34:46;24.50;29.90
77519;DHT22;66629;47.346;19.038;2023-04-23T11:37:14;24.65;30.77
77519;DHT22;66629;47.346;19.038;2023-04-23T11:39:41;24.86;30.15
77519;DHT22;66629;47.346;19.038;2023-04-23T11:42:14;24.89;29.49
77519;DHT22;66629;47.346;19.038;2023-04-23T11:44:41;25.08;29.03
77519;DHT22;66629;47.346;19.038;2023-04-23T11:47:08;24.72;29.07
77519;DHT22;66629;47.346;19.038;2023-04-23T11:49:39;25.02;29.60
77519;DHT22;66629;47.346;19.038;2023-04-23T11:52:05;25.09;31.26
77519;DHT22;66629;47.346;19.038;2023-04-23T11:54:31;25.08;30.77
77519;DHT22;66629;47.346;19.038;2023-04-23T11:56:57;24.79;29.29
77519;DHT22;66629;47.346;19.038;2023-04-23T11:59:24;23.94;30.14
77519;DHT22;66629;47.346;19.038;2023-04-23T12:01:52;24.60;31.08
77519;DHT22;66629;47.346;19.038;2023-04-23T12:04:20;25.10;31.82
77519;DHT22;66629;47.346;19.038;2023-04-23T12:06:48;24.72;30.73
77519;DHT22;66629;47.346;19.038;2023-04-23T12:09:15;25.01;30.37
77519;DHT22;66629;47.346;19.038;2023-04-23T12:11:42;24.71;29.74
77519;DHT22;66629;47.346;19.038;2023-04-23T12:14:09;24.71;35.46
77519;DHT22;66629;47.346;19.038;2023-04-23T12:16:44;24.60;29.83
77519;DHT22;66629;47.346;19.038;2023-04-23T12:19:16;24.63;30.04
77519;DHT22;66629;47.346;19.038;2023-04-23T12:22:12;24.72;30.11
77519;DHT22;66629;47.346;19.038;2023-04-23T12:24:48;24.88;29.34
77519;DHT22;66629;47.346;19.038;2023-04-23T12:27:19;23.68;30.41
77519;DHT22;66629;47.346;19.038;2023-04-23T12:29:46;24.00;30.77
77519;DHT22;66629;47.346;19.038;2023-04-23T12:32:13;24.26;32.17
77519;DHT22;66629;47.346;19.038;2023-04-23T12:34:50;24.39;31.06
77519;DHT22;66629;47.346;19.038;2023-04-23T12:37:17;24.57;29.87
77519;DHT22;66629;47.346;19.038;2023-04-23T12:39:43;24.84;30.61
77519;DHT22;66629;47.346;19.038;2023-04-23T12:42:08;24.79;29.32
77519;DHT22;66629;47.346;19.038;2023-04-23T12:44:36;25.13;31.48
77519;DHT22;66629;47.346;19.038;2023-04-23T12:47:03;25.09;30.96
77519;DHT22;66629;47.346;19.038;2023-04-23T12:49:30;24.78;30.35
77519;DHT22;66629;47.346;19.038;2023-04-23T12:51:57;24.35;30.75
77519;DHT22;66629;47.346;19.038;2023-04-23T12:54:36;24.54;31.79
77519;DHT22;66629;47.346;19.038;2023-04-23T12:57:03;24.56;30.98
77519;DHT22;66629;47.346;19.038;2023-04-23T12:59:30;24.75;29.67
77519;DHT22;66629;47.346;19.038;2023-04-23T13:01:55;24.47;30.30
77519;DHT22;66629;47.346;19.038;2023-04-23T13:04:21;24.16;29.45
77519;DHT22;66629;47.346;19.038;2023-04-23T13:06:47;24.30;31.14
77519;DHT22;66629;47.346;19.038;2023-04-23T13:09:12;24.26;31.44
77519;DHT22;66629;47.346;19.038;2023-04-23T13:11:39;24.01;30.09
77519;DHT22;66629;47.346;19.038;2023-04-23T13:14:05;24.16;30.77
77519;DHT22;66629;47.346;19.038;2023-04-23T13:16:31;24.18;29.95
77519;DHT22;66629;47.346;19.038;2023-04-23T13:18:58;24.32;31.74
77519;DHT22;66629;47.346;19.038;2023-04-23T13:21:24;24.35;31.57
77519;DHT22;66629;47.346;19.038;2023-04-23T13:23:49;24.40;30.52
77519;DHT22;66629;47.346;19.038;2023-04-23T13:26:15;24.26;31.64
77519;DHT22;66629;47.346;19.038;2023-04-23T13:28:40;24.16;30.87
77519;DHT22;66629;47.346;19.038;2023-04-23T13:31:06;24.63;33.30
77519;DHT22;66629;47.346;19.038;2023-04-23T13:33:32;24.41;30.60
77519;DHT22;66629;47.346;19.038;2023-04-23T13:35:59;24.60;31.20
77519;DHT22;66629;47.346;19.038;2023-04-23T13:38:25;24.63;29.80
77519;DHT22;66629;47.346;19.038;2023-04-23T13:40:51;24.30;29.68
77519;DHT22;66629;47.346;19.038;2023-04-23T13:43:17;24.40;29.39
77519;DHT22;66629;47.346;19.038;2023-04-23T13:45:42;24.18;30.90
77519;DHT22;66629;47.346;19.038;2023-04-23T13:48:08;24.16;30.28
77519;DHT22;66629;47.346;19.038;2023-04-23T13:50:33;24.00;29.99
77519;DHT22;66629;47.346;19.038;2023-04-23T13:52:59;24.15;30.36
77519;DHT22;66629;47.346;19.038;2023-04-23T13:55:25;24.13;30.05
77519;DHT22;66629;47.346;19.038;2023-04-23T13:57:50;24.16;30.76
77519;DHT22;66629;47.346;19.038;2023-04-23T14:00:16;24.09;31.15
77519;DHT22;66629;47.346;19.038;2023-04-23T14:02:42;24.05;31.45
77519;DHT22;66629;47.346;19.038;2023-04-23T14:05:07;24.26;29.76
77519;DHT22;66629;47.346;19.038;2023-04-23T14:07:34;24.47;30.69
77519;DHT22;66629;47.346;19.038;2023-04-23T14:10:00;24.35;30.34
77519;DHT22;66629;47.346;19.038;2023-04-23T14:12:26;24.32;31.09
77519;DHT22;66629;47.346;19.038;2023-04-23T14:14:54;24.46;31.26
77519;DHT22;66629;47.346;19.038;2023-04-23T14:17:19;24.16;31.74
77519;DHT22;66629;47.346;19.038;2023-04-23T14:19:45;24.22;31.54
77519;DHT22;66629;47.346;19.038;2023-04-23T14:22:10;24.46;30.82
77519;DHT22;66629;47.346;19.038;2023-04-23T14:24:48;24.25;30.12
77519;DHT22;66629;47.346;19.038;2023-04-23T14:27:14;24.05;31.16
77519;DHT22;66629;47.346;19.038;2023-04-23T14:32:06;24.02;30.42
77519;DHT22;66629;47.346;19.038;2023-04-23T14:34:32;23.71;30.22
77519;DHT22;66629;47.346;19.038;2023-04-23T14:37:00;23.52;31.00
77519;DHT22;66629;47.346;19.038;2023-04-23T14:39:25;23.73;30.15
77519;DHT22;66629;47.346;19.038;2023-04-23T14:41:51;23.82;30.46
77519;DHT22;66629;47.346;19.038;2023-04-23T14:44:17;23.88;30.52
77519;DHT22;66629;47.346;19.038;2023-04-23T14:46:43;23.54;30.30
77519;DHT22;66629;47.346;19.038;2023-04-23T14:49:10;23.64;30.69
77519;DHT22;66629;47.346;19.038;2023-04-23T14:51:35;23.49;30.19
77519;DHT22;66629;47.346;19.038;2023-04-23T14:54:01;23.75;30.96
77519;DHT22;66629;47.346;19.038;2023-04-23T14:56:27;23.60;31.05
77519;DHT22;66629;47.346;19.038;2023-04-23T14:58:53;23.56;30.33
77519;DHT22;66629;47.346;19.038;2023-04-23T15:01:18;23.79;30.34
77519;DHT22;66629;47.346;19.038;2023-04-23T15:03:43;23.63;29.83
77519;DHT22;66629;47.346;19.038;2023-04-23T15:06:09;23.74;31.18
77519;DHT22;66629;47.346;19.038;2023-04-23T15:08:35;23.85;30.98
77519;DHT22;66629;47.346;19.038;2023-04-23T15:11:00;24.02;31.71
77519;DHT22;66629;47.346;19.038;2023-04-23T15:13:42;23.61;29.76
77519;DHT22;66629;47.346;19.038;2023-04-23T15:16:18;23.77;30.58
77519;DHT22;66629;47.346;19.038;2023-04-23T15:18:44;23.54;29.53
77519;DHT22;66629;47.346;19.038;2023-04-23T15:21:09;23.57;32.00